sensor_id;sensor_type;location;lat;lon;timestamp;pressure;altitude;pressure_sealevel;temperature;humidity
25869;BME280;13688;53.154;18.136;2022-08-26T00:05:09;101022.00;;;19.81;100.00
25869;BME280;13688;53.154;18.136;2022-08-26T00:10:31;101011.41;;;19.86;100.00
25869;BME280;13688;53.154;18.136;2022-08-26T00:15:54;101008.00;;;19.84;100.00
25869;BME280;13688;53.154;18.136;2022-08-26T00:21:19;101010.06;;;19.82;100.00
25869;BME280;13688;53.154;18.136;2022-08-26T00:26:42;101002.38;;;19.78;100.00
25869;BME280;13688;53.154;18.136;2022-08-26T00:32:05;100997.77;;;19.78;100.00
25869;BME280;13688;53.154;18.136;2022-08-26T00:37:27;100994.05;;;19.79;100.00
25869;BME280;13688;53.154;18.136;2022-08-26T00:42:50;100982.60;;;19.76;100.00
25869;BME280;13688;53.154;18.136;2022-08-26T00:48:15;100986.19;;;19.76;100.00
25869;BME280;13688;53.154;18.136;2022-08-26T00:53:47;100985.51;;;19.74;100.00
25869;BME280;13688;53.154;18.136;2022-08-26T00:59:13;100983.31;;;19.69;100.00
25869;BME280;13688;53.154;18.136;2022-08-26T01:04:41;100983.45;;;19.68;100.00
25869;BME280;13688;53.154;18.136;2022-08-26T01:10:07;100983.31;;;19.61;100.00
25869;BME280;13688;53.154;18.136;2022-08-26T01:15:39;100976.48;;;19.65;100.00
25869;BME280;13688;53.154;18.136;2022-08-26T01:26:50;100977.02;;;19.61;100.00
25869;BME280;13688;53.154;18.136;2022-08-26T01:32:20;100991.50;;;19.61;100.00
25869;BME280;13688;53.154;18.136;2022-08-26T01:37:47;100988.59;;;19.63;100.00
25869;BME280;13688;53.154;18.136;2022-08-26T01:43:16;100986.68;;;19.55;100.00
25869;BME280;13688;53.154;18.136;2022-08-26T01:48:41;100983.28;;;19.53;100.00
25869;BME280;13688;53.154;18.136;2022-08-26T01:54:06;100986.01;;;19.53;100.00
25869;BME280;13688;53.154;18.136;2022-08-26T01:59:31;100977.65;;;19.47;100.00
25869;BME280;13688;53.154;18.136;2022-08-26T02:05:00;100976.13;;;19.44;100.00
25869;BME280;13688;53.154;18.136;2022-08-26T02:10:21;100975.59;;;19.49;100.00
25869;BME280;13688;53.154;18.136;2022-08-26T02:15:45;100966.06;;;19.53;100.00
25869;BME280;13688;53.154;18.136;2022-08-26T02:21:11;100967.41;;;19.49;100.00
25869;BME280;13688;53.154;18.136;2022-08-26T02:26:34;100959.94;;;19.42;100.00
25869;BME280;13688;53.154;18.136;2022-08-26T02:31:57;100970.67;;;19.44;100.00
25869;BME280;13688;53.154;18.136;2022-08-26T02:37:23;100965.04;;;19.45;100.00
25869;BME280;13688;53.154;18.136;2022-08-26T02:42:49;100959.09;;;19.42;100.00
25869;BME280;13688;53.154;18.136;2022-08-26T02:48:16;100958.41;;;19.40;100.00
25869;BME280;13688;53.154;18.136;2022-08-26T02:53:39;100960.25;;;19.39;100.00
25869;BME280;13688;53.154;18.136;2022-08-26T02:59:01;100953.98;;;19.31;100.00
25869;BME280;13688;53.154;18.136;2022-08-26T03:04:24;100950.55;;;19.29;100.00
25869;BME280;13688;53.154;18.136;2022-08-26T03:09:47;100954.47;;;19.26;100.00
25869;BME280;13688;53.154;18.136;2022-08-26T03:15:15;100940.84;;;19.26;100.00
25869;BME280;13688;53.154;18.136;2022-08-26T03:20:40;100940.34;;;19.23;100.00
25869;BME280;13688;53.154;18.136;2022-08-26T03:26:02;100942.89;;;19.24;100.00
25869;BME280;13688;53.154;18.136;2022-08-26T03:31:27;100950.89;;;19.26;100.00
25869;BME280;13688;53.154;18.136;2022-08-26T03:36:50;100949.37;;;19.23;100.00
25869;BME280;13688;53.154;18.136;2022-08-26T03:42:14;100946.30;;;19.26;100.00
25869;BME280;13688;53.154;18.136;2022-08-26T03:47:37;100941.19;;;19.23;100.00
25869;BME280;13688;53.154;18.136;2022-08-26T03:53:02;100949.20;;;19.25;100.00
25869;BME280;13688;53.154;18.136;2022-08-26T03:58:28;100946.65;;;19.31;100.00
25869;BME280;13688;53.154;18.136;2022-08-26T04:03:52;100945.44;;;19.18;100.00
25869;BME280;13688;53.154;18.136;2022-08-26T04:09:17;100955.48;;;19.09;100.00
25869;BME280;13688;53.154;18.136;2022-08-26T04:14:43;100951.22;;;19.06;100.00
25869;BME280;13688;53.154;18.136;2022-08-26T04:20:06;100948.52;;;19.14;100.00
25869;BME280;13688;53.154;18.136;2022-08-26T04:25:29;100949.20;;;19.25;100.00
25869;BME280;13688;53.154;18.136;2022-08-26T04:30:51;100950.41;;;19.30;100.00
25869;BME280;13688;53.154;18.136;2022-08-26T04:36:14;100948.17;;;19.34;100.00
25869;BME280;13688;53.154;18.136;2022-08-26T04:41:38;100953.80;;;19.32;100.00
25869;BME280;13688;53.154;18.136;2022-08-26T04:47:03;100952.77;;;19.25;100.00
25869;BME280;13688;53.154;18.136;2022-08-26T04:52:27;100953.30;;;19.21;100.00
25869;BME280;13688;53.154;18.136;2022-08-26T04:57:51;100954.81;;;19.15;100.00
25869;BME280;13688;53.154;18.136;2022-08-26T05:03:18;100958.04;;;19.19;100.00
25869;BME280;13688;53.154;18.136;2022-08-26T05:08:40;100951.92;;;19.25;100.00
25869;BME280;13688;53.154;18.136;2022-08-26T05:14:03;100955.50;;;19.33;100.00
25869;BME280;13688;53.154;18.136;2022-08-26T05:19:27;100963.16;;;19.38;100.00
25869;BME280;13688;53.154;18.136;2022-08-26T05:24:51;100957.20;;;19.42;100.00
25869;BME280;13688;53.154;18.136;2022-08-26T05:30:14;100966.42;;;19.50;100.00
25869;BME280;13688;53.154;18.136;2022-08-26T05:35:37;100971.02;;;19.57;100.00
25869;BME280;13688;53.154;18.136;2022-08-26T05:41:00;100975.45;;;19.58;100.00
25869;BME280;13688;53.154;18.136;2022-08-26T05:46:30;100970.35;;;19.63;100.00
25869;BME280;13688;53.154;18.136;2022-08-26T05:51:53;100963.37;;;19.69;100.00
25869;BME280;13688;53.154;18.136;2022-08-26T05:57:18;100961.80;;;19.83;100.00
25869;BME280;13688;53.154;18.136;2022-08-26T06:02:40;100957.34;;;19.98;100.00
25869;BME280;13688;53.154;18.136;2022-08-26T06:08:03;100961.57;;;20.09;100.00
25869;BME280;13688;53.154;18.136;2022-08-26T06:13:30;100966.65;;;20.20;100.00
25869;BME280;13688;53.154;18.136;2022-08-26T06:18:54;100959.95;;;20.30;95.87
25869;BME280;13688;53.154;18.136;2022-08-26T06:24:19;100962.80;;;20.45;92.50
25869;BME280;13688;53.154;18.136;2022-08-26T06:29:59;100965.17;;;20.56;89.83
25869;BME280;13688;53.154;18.136;2022-08-26T06:35:23;100972.59;;;20.71;87.23
25869;BME280;13688;53.154;18.136;2022-08-26T06:40:51;100965.53;;;20.84;85.50
25869;BME280;13688;53.154;18.136;2022-08-26T06:46:16;100970.88;;;21.01;82.91
25869;BME280;13688;53.154;18.136;2022-08-26T06:51:41;100981.99;;;21.22;80.72
25869;BME280;13688;53.154;18.136;2022-08-26T06:57:04;100982.29;;;21.35;78.30
25869;BME280;13688;53.154;18.136;2022-08-26T07:02:26;100976.13;;;21.56;76.81
25869;BME280;13688;53.154;18.136;2022-08-26T07:07:51;100974.86;;;21.82;75.40
25869;BME280;13688;53.154;18.136;2022-08-26T07:13:14;100963.48;;;22.08;74.38
25869;BME280;13688;53.154;18.136;2022-08-26T07:18:40;100968.22;;;22.14;72.18
25869;BME280;13688;53.154;18.136;2022-08-26T07:24:03;100965.95;;;22.32;70.62
25869;BME280;13688;53.154;18.136;2022-08-26T07:29:25;100967.31;;;22.57;69.27
25869;BME280;13688;53.154;18.136;2022-08-26T07:34:49;100962.95;;;22.78;67.36
25869;BME280;13688;53.154;18.136;2022-08-26T07:40:11;100956.08;;;23.03;67.06
25869;BME280;13688;53.154;18.136;2022-08-26T07:45:35;100952.88;;;23.21;64.72
25869;BME280;13688;53.154;18.136;2022-08-26T07:50:58;100942.39;;;23.53;63.57
25869;BME280;13688;53.154;18.136;2022-08-26T07:56:21;100939.05;;;23.79;62.06
25869;BME280;13688;53.154;18.136;2022-08-26T08:01:45;100943.56;;;23.93;60.57
25869;BME280;13688;53.154;18.136;2022-08-26T08:07:08;100941.63;;;24.21;59.16
25869;BME280;13688;53.154;18.136;2022-08-26T08:12:32;100942.89;;;24.53;57.00
25869;BME280;13688;53.154;18.136;2022-08-26T08:17:56;100941.30;;;24.86;55.64
25869;BME280;13688;53.154;18.136;2022-08-26T08:23:21;100937.56;;;25.06;49.57
25869;BME280;13688;53.154;18.136;2022-08-26T08:28:46;100934.63;;;25.48;46.41
25869;BME280;13688;53.154;18.136;2022-08-26T08:34:10;100931.27;;;25.72;44.44
25869;BME280;13688;53.154;18.136;2022-08-26T08:39:36;100925.73;;;25.99;42.97
25869;BME280;13688;53.154;18.136;2022-08-26T08:45:15;100928.42;;;26.18;42.11
25869;BME280;13688;53.154;18.136;2022-08-26T08:50:56;100926.86;;;26.49;41.92
25869;BME280;13688;53.154;18.136;2022-08-26T08:56:51;100921.92;;;26.64;41.11
25869;BME280;13688;53.154;18.136;2022-08-26T09:03:15;100922.66;;;26.85;40.80
25869;BME280;13688;53.154;18.136;2022-08-26T09:08:10;100919.73;;;27.11;38.50
25869;BME280;13688;53.154;18.136;2022-08-26T09:13:38;100926.14;;;27.36;38.33
25869;BME280;13688;53.154;18.136;2022-08-26T09:19:12;100913.41;;;27.60;38.23
25869;BME280;13688;53.154;18.136;2022-08-26T09:24:35;100915.08;;;27.86;37.40
25869;BME280;13688;53.154;18.136;2022-08-26T09:30:00;100910.05;;;28.02;36.64
25869;BME280;13688;53.154;18.136;2022-08-26T09:35:38;100900.44;;;28.22;36.19
25869;BME280;13688;53.154;18.136;2022-08-26T09:41:05;100899.59;;;28.59;34.48
25869;BME280;13688;53.154;18.136;2022-08-26T09:46:37;100896.20;;;29.17;33.41
25869;BME280;13688;53.154;18.136;2022-08-26T09:52:12;100887.83;;;29.82;32.00
25869;BME280;13688;53.154;18.136;2022-08-26T09:57:49;100882.77;;;30.54;30.19
25869;BME280;13688;53.154;18.136;2022-08-26T10:03:21;100883.05;;;30.98;29.74
25869;BME280;13688;53.154;18.136;2022-08-26T10:08:55;100877.75;;;30.96;27.83
25869;BME280;13688;53.154;18.136;2022-08-26T10:19:57;100877.75;;;30.96;26.98
25869;BME280;13688;53.154;18.136;2022-08-26T10:25:30;100858.95;;;31.49;25.63
25869;BME280;13688;53.154;18.136;2022-08-26T10:36:59;100852.20;;;32.22;25.58
25869;BME280;13688;53.154;18.136;2022-08-26T10:48:20;100842.63;;;33.11;24.07
25869;BME280;13688;53.154;18.136;2022-08-26T10:53:57;100840.85;;;32.72;24.59
25869;BME280;13688;53.154;18.136;2022-08-26T10:59:50;100839.58;;;33.12;24.61
25869;BME280;13688;53.154;18.136;2022-08-26T11:05:08;100826.69;;;33.38;24.41
25869;BME280;13688;53.154;18.136;2022-08-26T11:16:12;100818.15;;;33.50;23.83
25869;BME280;13688;53.154;18.136;2022-08-26T11:21:50;100812.69;;;33.70;23.07
25869;BME280;13688;53.154;18.136;2022-08-26T11:33:04;100796.92;;;33.91;22.63
25869;BME280;13688;53.154;18.136;2022-08-26T11:38:33;100793.95;;;33.23;24.30
25869;BME280;13688;53.154;18.136;2022-08-26T11:43:58;100789.95;;;33.94;22.87
25869;BME280;13688;53.154;18.136;2022-08-26T11:49:22;100791.10;;;34.03;22.75
25869;BME280;13688;53.154;18.136;2022-08-26T11:54:58;100786.63;;;34.02;22.60
25869;BME280;13688;53.154;18.136;2022-08-26T12:00:33;100785.32;;;33.67;22.84
25869;BME280;13688;53.154;18.136;2022-08-26T12:06:00;100776.44;;;33.70;22.90
25869;BME280;13688;53.154;18.136;2022-08-26T12:11:33;100777.98;;;34.03;22.32
25869;BME280;13688;53.154;18.136;2022-08-26T12:16:57;100774.45;;;34.28;21.86
25869;BME280;13688;53.154;18.136;2022-08-26T12:22:30;100770.23;;;34.26;21.86
25869;BME280;13688;53.154;18.136;2022-08-26T12:27:55;100765.46;;;34.11;21.99
25869;BME280;13688;53.154;18.136;2022-08-26T12:33:22;100754.80;;;33.93;22.03
25869;BME280;13688;53.154;18.136;2022-08-26T12:38:47;100753.84;;;34.50;21.08
25869;BME280;13688;53.154;18.136;2022-08-26T12:44:29;100748.97;;;34.04;21.29
25869;BME280;13688;53.154;18.136;2022-08-26T12:49:59;100747.06;;;34.25;21.17
25869;BME280;13688;53.154;18.136;2022-08-26T12:55:40;100727.52;;;34.25;21.10
25869;BME280;13688;53.154;18.136;2022-08-26T13:06:32;100710.53;;;34.27;20.83
25869;BME280;13688;53.154;18.136;2022-08-26T13:11:57;100715.03;;;34.53;20.85
25869;BME280;13688;53.154;18.136;2022-08-26T13:17:20;100701.64;;;34.96;19.86
25869;BME280;13688;53.154;18.136;2022-08-26T13:22:44;100696.59;;;34.62;20.34
25869;BME280;13688;53.154;18.136;2022-08-26T13:28:08;100692.64;;;34.23;20.54
25869;BME280;13688;53.154;18.136;2022-08-26T13:33:31;100682.38;;;34.49;20.03
25869;BME280;13688;53.154;18.136;2022-08-26T13:38:55;100679.23;;;34.09;20.24
25869;BME280;13688;53.154;18.136;2022-08-26T13:44:18;100675.40;;;34.46;20.22
25869;BME280;13688;53.154;18.136;2022-08-26T13:49:41;100662.22;;;34.82;19.85
25869;BME280;13688;53.154;18.136;2022-08-26T13:55:05;100668.97;;;34.66;20.01
25869;BME280;13688;53.154;18.136;2022-08-26T14:00:29;100663.07;;;34.93;19.72
25869;BME280;13688;53.154;18.136;2022-08-26T14:05:52;100661.41;;;34.77;19.77
25869;BME280;13688;53.154;18.136;2022-08-26T14:11:14;100652.88;;;35.38;18.93
25869;BME280;13688;53.154;18.136;2022-08-26T14:16:41;100656.39;;;34.68;19.95
25869;BME280;13688;53.154;18.136;2022-08-26T14:22:05;100645.75;;;34.81;20.44
25869;BME280;13688;53.154;18.136;2022-08-26T14:27:28;100632.27;;;35.23;19.42
25869;BME280;13688;53.154;18.136;2022-08-26T14:32:53;100644.34;;;34.93;20.39
25869;BME280;13688;53.154;18.136;2022-08-26T14:38:17;100640.46;;;34.94;20.42
25869;BME280;13688;53.154;18.136;2022-08-26T14:43:41;100624.97;;;35.22;19.82
25869;BME280;13688;53.154;18.136;2022-08-26T14:49:07;100623.95;;;34.88;19.78
25869;BME280;13688;53.154;18.136;2022-08-26T14:54:31;100623.95;;;34.06;20.89
25869;BME280;13688;53.154;18.136;2022-08-26T14:59:53;100613.66;;;34.68;20.50
25869;BME280;13688;53.154;18.136;2022-08-26T15:05:16;100614.78;;;34.67;20.47
25869;BME280;13688;53.154;18.136;2022-08-26T15:10:39;100610.59;;;34.54;20.22
25869;BME280;13688;53.154;18.136;2022-08-26T15:16:02;100610.02;;;34.62;20.17
25869;BME280;13688;53.154;18.136;2022-08-26T15:21:25;100603.62;;;34.52;19.08
25869;BME280;13688;53.154;18.136;2022-08-26T15:26:49;100601.37;;;34.33;19.44
25869;BME280;13688;53.154;18.136;2022-08-26T15:32:11;100600.16;;;33.63;20.07
25869;BME280;13688;53.154;18.136;2022-08-26T15:37:34;100597.92;;;33.65;20.15
25869;BME280;13688;53.154;18.136;2022-08-26T15:42:57;100599.14;;;34.00;19.87
25869;BME280;13688;53.154;18.136;2022-08-26T15:48:21;100591.59;;;34.15;20.08
25869;BME280;13688;53.154;18.136;2022-08-26T15:53:44;100593.27;;;33.91;20.36
25869;BME280;13688;53.154;18.136;2022-08-26T15:59:08;100593.84;;;33.98;20.89
25869;BME280;13688;53.154;18.136;2022-08-26T16:04:31;100586.53;;;33.82;20.95
25869;BME280;13688;53.154;18.136;2022-08-26T16:09:54;100586.80;;;33.85;21.27
25869;BME280;13688;53.154;18.136;2022-08-26T16:15:16;100572.91;;;33.91;21.12
25869;BME280;13688;53.154;18.136;2022-08-26T16:20:48;100575.84;;;33.48;21.67
25869;BME280;13688;53.154;18.136;2022-08-26T16:26:17;100576.83;;;33.12;22.65
25869;BME280;13688;53.154;18.136;2022-08-26T16:31:43;100569.63;;;33.26;22.39
25869;BME280;13688;53.154;18.136;2022-08-26T16:37:05;100573.34;;;32.84;22.71
25869;BME280;13688;53.154;18.136;2022-08-26T16:42:29;100567.52;;;32.49;23.33
25869;BME280;13688;53.154;18.136;2022-08-26T16:47:52;100567.30;;;32.23;23.72
25869;BME280;13688;53.154;18.136;2022-08-26T16:53:16;100566.02;;;32.04;24.26
25869;BME280;13688;53.154;18.136;2022-08-26T16:58:40;100566.14;;;32.14;24.61
25869;BME280;13688;53.154;18.136;2022-08-26T17:04:18;100566.08;;;32.09;25.28
25869;BME280;13688;53.154;18.136;2022-08-26T17:09:40;100577.92;;;31.45;25.99
25869;BME280;13688;53.154;18.136;2022-08-26T17:15:04;100583.80;;;31.05;26.85
25869;BME280;13688;53.154;18.136;2022-08-26T17:20:27;100585.66;;;30.61;27.91
25869;BME280;13688;53.154;18.136;2022-08-26T17:25:50;100593.92;;;29.77;29.71
25869;BME280;13688;53.154;18.136;2022-08-26T17:31:14;100594.64;;;28.80;31.59
25869;BME280;13688;53.154;18.136;2022-08-26T17:36:37;100580.05;;;28.14;33.74
25869;BME280;13688;53.154;18.136;2022-08-26T17:41:59;100589.74;;;27.63;34.33
25869;BME280;13688;53.154;18.136;2022-08-26T17:47:22;100596.78;;;27.29;35.90
25869;BME280;13688;53.154;18.136;2022-08-26T17:52:46;100595.92;;;26.92;37.06
25869;BME280;13688;53.154;18.136;2022-08-26T17:58:08;100592.59;;;26.47;38.46
25869;BME280;13688;53.154;18.136;2022-08-26T18:03:33;100603.97;;;26.01;39.40
25869;BME280;13688;53.154;18.136;2022-08-26T18:08:56;100602.74;;;25.58;41.06
25869;BME280;13688;53.154;18.136;2022-08-26T18:14:19;100601.97;;;25.38;43.00
25869;BME280;13688;53.154;18.136;2022-08-26T18:19:42;100601.82;;;25.26;44.43
25869;BME280;13688;53.154;18.136;2022-08-26T18:25:06;100592.41;;;25.02;43.60
25869;BME280;13688;53.154;18.136;2022-08-26T18:30:29;100601.31;;;24.84;43.92
25869;BME280;13688;53.154;18.136;2022-08-26T18:35:52;100595.23;;;24.56;44.21
25869;BME280;13688;53.154;18.136;2022-08-26T18:41:15;100599.28;;;24.34;44.50
25869;BME280;13688;53.154;18.136;2022-08-26T18:46:38;100597.34;;;24.08;45.01
25869;BME280;13688;53.154;18.136;2022-08-26T18:52:01;100610.81;;;23.83;46.10
25869;BME280;13688;53.154;18.136;2022-08-26T18:57:23;100602.96;;;23.60;46.58
25869;BME280;13688;53.154;18.136;2022-08-26T19:02:46;100613.87;;;23.47;47.05
25869;BME280;13688;53.154;18.136;2022-08-26T19:08:09;100604.10;;;23.31;47.83
25869;BME280;13688;53.154;18.136;2022-08-26T19:13:31;100609.38;;;23.32;47.33
25869;BME280;13688;53.154;18.136;2022-08-26T19:18:54;100611.91;;;23.34;47.00
25869;BME280;13688;53.154;18.136;2022-08-26T19:24:19;100614.41;;;23.22;47.68
25869;BME280;13688;53.154;18.136;2022-08-26T19:29:42;100619.16;;;23.00;48.17
25869;BME280;13688;53.154;18.136;2022-08-26T19:35:06;100620.45;;;22.76;49.37
25869;BME280;13688;53.154;18.136;2022-08-26T19:40:29;100611.86;;;22.51;50.20
25869;BME280;13688;53.154;18.136;2022-08-26T19:45:53;100616.14;;;22.33;50.86
25869;BME280;13688;53.154;18.136;2022-08-26T19:51:23;100618.61;;;22.27;50.86
25869;BME280;13688;53.154;18.136;2022-08-26T19:56:47;100613.75;;;22.23;51.65
25869;BME280;13688;53.154;18.136;2022-08-26T20:02:10;100609.66;;;22.12;52.10
25869;BME280;13688;53.154;18.136;2022-08-26T20:07:32;100610.53;;;21.98;52.58
25869;BME280;13688;53.154;18.136;2022-08-26T20:12:56;100613.54;;;22.03;52.76
25869;BME280;13688;53.154;18.136;2022-08-26T20:18:18;100607.22;;;22.03;52.87
25869;BME280;13688;53.154;18.136;2022-08-26T20:24:12;100604.84;;;21.99;53.09
25869;BME280;13688;53.154;18.136;2022-08-26T20:29:37;100609.68;;;21.97;53.09
25869;BME280;13688;53.154;18.136;2022-08-26T20:35:00;100619.52;;;21.70;53.60
25869;BME280;13688;53.154;18.136;2022-08-26T20:40:24;100621.72;;;21.60;54.40
25869;BME280;13688;53.154;18.136;2022-08-26T20:45:46;100606.09;;;21.54;54.33
25869;BME280;13688;53.154;18.136;2022-08-26T20:51:10;100616.30;;;21.46;54.59
25869;BME280;13688;53.154;18.136;2022-08-26T20:56:33;100626.40;;;21.45;54.73
25869;BME280;13688;53.154;18.136;2022-08-26T21:01:57;100619.48;;;21.49;54.91
25869;BME280;13688;53.154;18.136;2022-08-26T21:07:19;100624.96;;;21.49;54.55
25869;BME280;13688;53.154;18.136;2022-08-26T21:12:42;100628.30;;;21.30;55.29
25869;BME280;13688;53.154;18.136;2022-08-26T21:18:05;100630.75;;;21.10;55.98
25869;BME280;13688;53.154;18.136;2022-08-26T21:23:28;100642.84;;;20.86;56.49
25869;BME280;13688;53.154;18.136;2022-08-26T21:28:51;100640.92;;;20.72;57.39
25869;BME280;13688;53.154;18.136;2022-08-26T21:34:17;100641.20;;;20.62;57.95
25869;BME280;13688;53.154;18.136;2022-08-26T21:39:40;100646.66;;;20.47;58.79
25869;BME280;13688;53.154;18.136;2022-08-26T21:45:04;100648.09;;;20.73;58.53
25869;BME280;13688;53.154;18.136;2022-08-26T21:50:27;100637.45;;;20.78;58.43
25869;BME280;13688;53.154;18.136;2022-08-26T21:55:52;100635.62;;;20.55;58.64
25869;BME280;13688;53.154;18.136;2022-08-26T22:01:18;100630.84;;;20.35;59.14
25869;BME280;13688;53.154;18.136;2022-08-26T22:06:52;100622.00;;;20.33;59.12
25869;BME280;13688;53.154;18.136;2022-08-26T22:12:15;100621.62;;;20.36;59.78
25869;BME280;13688;53.154;18.136;2022-08-26T22:17:38;100612.30;;;20.30;59.92
25869;BME280;13688;53.154;18.136;2022-08-26T22:23:03;100613.55;;;20.42;59.73
25869;BME280;13688;53.154;18.136;2022-08-26T22:28:26;100614.92;;;20.46;59.71
25869;BME280;13688;53.154;18.136;2022-08-26T22:33:49;100620.95;;;20.56;59.45
25869;BME280;13688;53.154;18.136;2022-08-26T22:39:13;100612.11;;;20.69;59.54
25869;BME280;13688;53.154;18.136;2022-08-26T22:44:37;100614.08;;;20.90;59.14
25869;BME280;13688;53.154;18.136;2022-08-26T22:50:00;100607.22;;;20.94;58.78
25869;BME280;13688;53.154;18.136;2022-08-26T22:55:22;100607.58;;;21.06;58.42
25869;BME280;13688;53.154;18.136;2022-08-26T23:00:47;100598.53;;;21.05;58.71
25869;BME280;13688;53.154;18.136;2022-08-26T23:06:12;100592.38;;;21.03;58.62
25869;BME280;13688;53.154;18.136;2022-08-26T23:11:34;100597.48;;;21.06;58.62
25869;BME280;13688;53.154;18.136;2022-08-26T23:16:58;100589.19;;;21.14;58.51
25869;BME280;13688;53.154;18.136;2022-08-26T23:22:23;100573.69;;;21.22;58.51
25869;BME280;13688;53.154;18.136;2022-08-26T23:27:47;100576.73;;;21.27;58.40
25869;BME280;13688;53.154;18.136;2022-08-26T23:33:10;100575.49;;;21.29;58.37
25869;BME280;13688;53.154;18.136;2022-08-26T23:38:33;100574.65;;;21.29;58.15
25869;BME280;13688;53.154;18.136;2022-08-26T23:43:57;100575.20;;;21.24;58.48
25869;BME280;13688;53.154;18.136;2022-08-26T23:49:20;100586.05;;;21.18;59.28
25869;BME280;13688;53.154;18.136;2022-08-26T23:54:43;100579.75;;;21.02;59.34
